Sycamore, Pennsylvania
Current Conditions -  °F | °C
As of 1:53 PM on Saturday 20 Dec 2014 (Local Time) from KMGW Reporting Station
Few Clouds Few Clouds  
Wind Chill: 34°   Ceiling: Unl
Heat Index: 34°   Visibility: 10mi
Dew Point: 19°   Wind: 3mph
Humidity: 54%   Direction: 300°WNW
Pressure: 30.2"   Gusts: NA
Location:  39.93°N, 80.24°W
Report Text: KMGW 201853Z 30003KT 10SM FEW027 01/M07 A3020 RMK AO2 SLP240 T00111072
Loading
Personal Weather Stations






























Interactive Weather Map New forecast layout! Learn more

10-Day Weather Forecast

Advertisements
Track Severe Weather on mobile